Time;durP1;ratioP1;P1;durP2;ratioP2;P2;SDS_P1;SDS_P2;PMS_P1;PMS_P2;Temp;Humidity;BMP_temperature;BMP_pressure;BME280_temperature;BME280_humidity;BME280_pressure;Samples;Min_cycle;Max_cycle;Signal;HPM_P1;HPM_P2
2023/06/02 00:01:33;;;;;;;3.33;3.08;;;;;;;;;;5136035;27;20466;-73
2023/06/02 00:03:59;;;;;;;3.25;3.05;;;;;;;;;;5117716;27;20019;-74
2023/06/02 00:06:26;;;;;;;3.42;3.15;;;;;;;;;;5136371;27;20042;-74
2023/06/02 00:08:52;;;;;;;2.92;2.78;;;;;;;;;;5117636;27;20023;-74
2023/06/02 00:11:19;;;;;;;3.40;3.13;;;;;;;;;;5136201;27;20081;-74
2023/06/02 00:13:44;;;;;;;3.20;2.95;;;;;;;;;;5135807;27;20049;-75
2023/06/02 00:16:10;;;;;;;3.47;3.17;;;;;;;;;;5135641;27;20015;-75
2023/06/02 00:18:37;;;;;;;3.15;2.95;;;;;;;;;;5135944;27;20026;-75
2023/06/02 00:21:08;;;;;;;3.50;3.20;;;;;;;;;;5100063;27;20496;-75
2023/06/02 00:23:33;;;;;;;3.40;3.10;;;;;;;;;;5135877;27;20028;-74
2023/06/02 00:26:00;;;;;;;4.43;3.72;;;;;;;;;;5135225;27;20475;-74
2023/06/02 00:28:26;;;;;;;5.25;3.58;;;;;;;;;;5135481;27;20122;-75
2023/06/02 00:30:51;;;;;;;3.67;3.38;;;;;;;;;;5117191;27;20517;-75
2023/06/02 00:33:17;;;;;;;3.78;3.47;;;;;;;;;;5135122;27;20042;-70
2023/06/02 00:35:43;;;;;;;3.97;3.63;;;;;;;;;;5100021;27;20019;-70
2023/06/02 00:38:08;;;;;;;4.30;3.80;;;;;;;;;;5135171;27;20030;-70
2023/06/02 00:40:33;;;;;;;5.43;3.78;;;;;;;;;;5099713;27;20027;-70
2023/06/02 00:43:00;;;;;;;5.95;3.75;;;;;;;;;;5116713;27;20421;-70
2023/06/02 00:45:25;;;;;;;4.18;3.83;;;;;;;;;;5135130;27;20031;-70
2023/06/02 00:47:50;;;;;;;4.30;3.58;;;;;;;;;;5134878;27;20102;-70
2023/06/02 00:50:16;;;;;;;4.70;3.95;;;;;;;;;;5116834;27;20122;-70
2023/06/02 00:52:43;;;;;;;4.15;3.75;;;;;;;;;;5135237;27;20027;-70
2023/06/02 00:55:08;;;;;;;3.78;3.47;;;;;;;;;;5100313;27;20023;-70
2023/06/02 00:57:38;;;;;;;5.22;3.55;;;;;;;;;;5134942;27;20026;-70
2023/06/02 01:00:05;;;;;;;4.60;3.30;;;;;;;;;;5134661;27;20029;-70
2023/06/02 01:02:31;;;;;;;4.32;3.80;;;;;;;;;;5135126;27;20027;-68
2023/06/02 01:04:57;;;;;;;5.68;3.42;;;;;;;;;;5135026;27;20048;-68
2023/06/02 01:07:24;;;;;;;6.53;3.88;;;;;;;;;;5135104;27;20035;-68
2023/06/02 01:09:51;;;;;;;4.07;3.70;;;;;;;;;;5099827;27;20032;-69
2023/06/02 01:12:17;;;;;;;3.67;3.38;;;;;;;;;;5116633;27;20102;-69
2023/06/02 01:14:42;;;;;;;6.00;4.28;;;;;;;;;;5116769;27;20521;-68
2023/06/02 01:17:09;;;;;;;5.47;3.97;;;;;;;;;;5135035;27;20027;-68
2023/06/02 01:19:38;;;;;;;4.47;3.80;;;;;;;;;;5116499;27;20015;-66
2023/06/02 01:22:05;;;;;;;5.30;3.85;;;;;;;;;;5135174;27;20028;-66
2023/06/02 01:24:38;;;;;;;4.70;4.30;;;;;;;;;;5116790;28;20027;-72
2023/06/02 01:27:07;;;;;;;5.13;3.78;;;;;;;;;;5116266;27;20411;-67
2023/06/02 01:29:35;;;;;;;3.63;3.33;;;;;;;;;;5135061;28;20031;-72
2023/06/02 01:32:09;;;;;;;4.43;3.53;;;;;;;;;;5116705;28;20028;-72
2023/06/02 01:34:41;;;;;;;6.55;3.67;;;;;;;;;;5099584;28;20031;-74
2023/06/02 01:37:08;;;;;;;;;;;;;;;;;;5137827;27;20110;-74
2023/06/02 01:39:34;;;;;;;4.03;3.65;;;;;;;;;;5120606;27;19907;-77
2023/06/02 01:42:22;;;;;;;4.38;3.55;;;;;;;;;;5139377;27;20023;-73
2023/06/02 01:44:48;;;;;;;4.93;3.55;;;;;;;;;;5154888;27;20052;-74
2023/06/02 01:47:17;;;;;;;6.18;3.97;;;;;;;;;;5120278;27;20051;-68
2023/06/02 01:49:43;;;;;;;4.07;3.67;;;;;;;;;;5120519;27;20049;-69
2023/06/02 01:52:09;;;;;;;4.38;3.78;;;;;;;;;;5103195;27;20031;-69
2023/06/02 01:54:34;;;;;;;3.60;3.40;;;;;;;;;;5138204;27;20039;-69
2023/06/02 01:56:59;;;;;;;6.15;3.67;;;;;;;;;;5138381;27;20024;-69
2023/06/02 01:59:25;;;;;;;5.15;3.50;;;;;;;;;;5119948;27;20447;-69
2023/06/02 02:01:51;;;;;;;5.00;3.65;;;;;;;;;;5120580;27;20058;-74
2023/06/02 02:04:16;;;;;;;4.13;3.83;;;;;;;;;;5120773;27;20020;-74
2023/06/02 02:06:49;;;;;;;4.20;3.85;;;;;;;;;;5138910;27;20426;-74
2023/06/02 02:09:14;;;;;;;4.72;3.45;;;;;;;;;;5120652;27;20046;-74
2023/06/02 02:11:40;;;;;;;4.72;3.83;;;;;;;;;;5139047;27;20035;-74
2023/06/02 02:14:05;;;;;;;4.55;4.10;;;;;;;;;;5120169;27;20035;-74
2023/06/02 02:16:31;;;;;;;4.07;3.80;;;;;;;;;;5120086;27;20018;-74
2023/06/02 02:18:58;;;;;;;4.22;3.83;;;;;;;;;;5138417;27;20097;-74
2023/06/02 02:21:23;;;;;;;4.20;3.75;;;;;;;;;;5137954;27;20035;-74
2023/06/02 02:23:48;;;;;;;4.10;3.72;;;;;;;;;;5137807;27;20031;-74
2023/06/02 02:26:14;;;;;;;4.95;3.78;;;;;;;;;;5119194;27;20126;-74
2023/06/02 02:28:39;;;;;;;3.92;3.58;;;;;;;;;;5119091;27;20138;-74
2023/06/02 02:31:05;;;;;;;3.45;3.15;;;;;;;;;;5119403;27;20038;-74
2023/06/02 02:33:31;;;;;;;4.18;3.58;;;;;;;;;;5102521;27;20368;-74
2023/06/02 02:35:56;;;;;;;3.58;3.28;;;;;;;;;;5137799;27;20015;-78
2023/06/02 02:38:22;;;;;;;4.00;3.67;;;;;;;;;;5119220;27;20024;-75
2023/06/02 02:40:48;;;;;;;4.53;3.33;;;;;;;;;;5119285;27;20011;-74
2023/06/02 02:43:15;;;;;;;4.32;3.55;;;;;;;;;;5119279;27;20061;-69
2023/06/02 02:45:41;;;;;;;3.72;3.53;;;;;;;;;;5137334;27;20031;-69
2023/06/02 02:48:07;;;;;;;3.92;3.60;;;;;;;;;;5100579;27;20129;-67
2023/06/02 02:50:33;;;;;;;4.50;3.40;;;;;;;;;;5137255;27;20023;-67
2023/06/02 02:52:58;;;;;;;7.82;3.88;;;;;;;;;;5118696;27;20019;-65
2023/06/02 02:55:25;;;;;;;5.68;3.55;;;;;;;;;;5137164;27;20046;-64
2023/06/02 02:57:50;;;;;;;4.13;3.83;;;;;;;;;;5101792;27;20023;-68
2023/06/02 03:00:16;;;;;;;5.78;4.10;;;;;;;;;;5137532;27;20106;-69
2023/06/02 03:02:42;;;;;;;4.00;3.60;;;;;;;;;;5119105;27;20470;-71
2023/06/02 03:05:08;;;;;;;4.55;4.07;;;;;;;;;;5153347;27;20133;-71
2023/06/02 03:07:34;;;;;;;3.83;3.53;;;;;;;;;;5118977;27;20079;-71
2023/06/02 03:10:00;;;;;;;4.00;3.60;;;;;;;;;;5153070;27;20015;-70
2023/06/02 03:12:25;;;;;;;4.05;3.72;;;;;;;;;;5119161;27;20112;-66
2023/06/02 03:14:52;;;;;;;6.07;3.65;;;;;;;;;;5101936;27;20034;-66
2023/06/02 03:17:17;;;;;;;4.63;3.70;;;;;;;;;;5118861;27;20019;-66
2023/06/02 03:19:43;;;;;;;4.90;3.72;;;;;;;;;;5118560;27;20108;-66
2023/06/02 03:22:08;;;;;;;5.65;3.92;;;;;;;;;;5118454;27;20026;-67
2023/06/02 03:24:36;;;;;;;4.38;4.03;;;;;;;;;;5118731;27;20087;-65
2023/06/02 03:27:03;;;;;;;5.25;4.38;;;;;;;;;;5118557;27;20449;-70
2023/06/02 03:29:29;;;;;;;5.13;4.18;;;;;;;;;;5118105;27;20119;-66
2023/06/02 03:31:55;;;;;;;4.53;3.58;;;;;;;;;;5117910;27;20133;-72
2023/06/02 03:34:23;;;;;;;7.10;4.70;;;;;;;;;;5118272;27;20027;-68
2023/06/02 03:36:50;;;;;;;4.20;3.92;;;;;;;;;;5117786;27;20058;-69
2023/06/02 03:39:15;;;;;;;4.60;4.10;;;;;;;;;;5118299;27;20027;-68
2023/06/02 03:41:43;;;;;;;7.22;4.97;;;;;;;;;;5117967;27;20033;-69
2023/06/02 03:44:08;;;;;;;10.50;6.65;;;;;;;;;;5118045;27;20023;-69
2023/06/02 03:46:34;;;;;;;9.30;5.72;;;;;;;;;;5112173;28;20036;-69
2023/06/02 03:49:02;;;;;;;16.63;12.52;;;;;;;;;;5130253;27;20087;-70
2023/06/02 03:51:28;;;;;;;18.02;14.45;;;;;;;;;;5113667;28;20035;-72
2023/06/02 03:53:55;;;;;;;19.42;15.25;;;;;;;;;;5114492;28;20073;-71
2023/06/02 03:56:27;;;;;;;22.05;15.07;;;;;;;;;;5097347;28;20028;-68
2023/06/02 03:58:52;;;;;;;17.60;11.32;;;;;;;;;;5096306;28;20077;-64
2023/06/02 04:01:23;;;;;;;11.90;10.02;;;;;;;;;;5114375;28;20505;-64
2023/06/02 04:03:48;;;;;;;7.50;6.70;;;;;;;;;;5113953;28;20471;-65
2023/06/02 04:06:16;;;;;;;6.05;5.03;;;;;;;;;;5113468;28;20266;-63
2023/06/02 04:08:42;;;;;;;7.72;5.28;;;;;;;;;;5114459;28;20031;-63
2023/06/02 04:11:07;;;;;;;6.65;5.45;;;;;;;;;;5115348;28;20085;-63
2023/06/02 04:13:33;;;;;;;6.53;5.43;;;;;;;;;;5113626;28;20027;-63
2023/06/02 04:16:00;;;;;;;7.03;5.13;;;;;;;;;;5113734;28;20107;-63
2023/06/02 04:18:28;;;;;;;5.85;5.05;;;;;;;;;;5113885;28;20375;-63
2023/06/02 04:20:55;;;;;;;5.68;4.70;;;;;;;;;;5113279;28;20072;-64
2023/06/02 04:23:21;;;;;;;6.22;5.32;;;;;;;;;;5113896;28;20020;-64
2023/06/02 04:25:46;;;;;;;7.75;5.22;;;;;;;;;;5115134;28;20035;-64
2023/06/02 04:28:12;;;;;;;7.57;5.10;;;;;;;;;;5096202;28;20040;-65
2023/06/02 04:30:38;;;;;;;5.38;4.85;;;;;;;;;;5097094;28;20120;-67
2023/06/02 04:33:04;;;;;;;8.07;5.13;;;;;;;;;;5113666;28;20024;-68
2023/06/02 04:35:29;;;;;;;8.30;4.93;;;;;;;;;;5096164;28;20421;-67
2023/06/02 04:37:55;;;;;;;7.38;4.90;;;;;;;;;;5113405;28;20024;-67
2023/06/02 04:40:21;;;;;;;7.10;5.10;;;;;;;;;;5113630;28;20020;-68
2023/06/02 04:42:46;;;;;;;6.07;4.82;;;;;;;;;;5114669;28;20031;-70
2023/06/02 04:45:12;;;;;;;5.63;4.75;;;;;;;;;;5113697;28;20026;-71
2023/06/02 04:47:40;;;;;;;9.65;5.38;;;;;;;;;;5116505;27;20028;-67
2023/06/02 04:50:06;;;;;;;5.95;5.30;;;;;;;;;;5135162;27;20028;-69
2023/06/02 04:52:32;;;;;;;8.63;5.05;;;;;;;;;;5135129;27;20031;-69
2023/06/02 04:54:57;;;;;;;8.07;5.05;;;;;;;;;;5116468;27;20106;-69
2023/06/02 04:57:23;;;;;;;6.93;4.72;;;;;;;;;;5134871;27;20027;-69
2023/06/02 04:59:49;;;;;;;7.43;5.00;;;;;;;;;;5116465;27;20008;-69
2023/06/02 05:02:15;;;;;;;6.80;4.85;;;;;;;;;;5116381;27;20035;-67
2023/06/02 05:04:42;;;;;;;9.05;5.05;;;;;;;;;;5116429;27;20019;-67
2023/06/02 05:07:08;;;;;;;6.05;4.85;;;;;;;;;;5135071;27;20027;-67
2023/06/02 05:09:33;;;;;;;7.80;5.43;;;;;;;;;;5099651;27;20477;-67
2023/06/02 05:11:59;;;;;;;7.68;4.80;;;;;;;;;;5115544;27;20035;-67
2023/06/02 05:14:24;;;;;;;8.15;4.68;;;;;;;;;;5116487;27;20073;-67
2023/06/02 05:16:51;;;;;;;7.47;4.40;;;;;;;;;;5116385;28;20019;-67
2023/06/02 05:19:16;;;;;;;10.10;6.25;;;;;;;;;;5116161;27;20034;-67
2023/06/02 05:21:42;;;;;;;7.25;4.93;;;;;;;;;;5099271;27;20023;-67
2023/06/02 05:24:07;;;;;;;8.82;4.68;;;;;;;;;;5116593;28;20031;-71
2023/06/02 05:26:33;;;;;;;6.70;4.50;;;;;;;;;;5116245;28;20423;-61
2023/06/02 05:28:58;;;;;;;7.07;5.10;;;;;;;;;;5095750;28;20047;-70
2023/06/02 05:31:24;;;;;;;9.82;5.60;;;;;;;;;;5112752;28;20407;-71
2023/06/02 05:33:51;;;;;;;5.22;3.90;;;;;;;;;;5113041;28;20354;-70
2023/06/02 05:36:16;;;;;;;6.10;3.92;;;;;;;;;;5114612;28;20019;-71
2023/06/02 05:38:43;;;;;;;6.88;4.65;;;;;;;;;;5096116;28;20391;-70
2023/06/02 05:41:09;;;;;;;5.25;4.10;;;;;;;;;;5113123;28;20024;-70
2023/06/02 05:43:34;;;;;;;4.80;3.88;;;;;;;;;;5112511;28;20028;-70
2023/06/02 05:46:00;;;;;;;6.13;3.75;;;;;;;;;;5113016;28;20038;-70
2023/06/02 05:48:25;;;;;;;4.55;3.58;;;;;;;;;;5112894;28;20036;-70
2023/06/02 05:50:54;;;;;;;6.10;3.83;;;;;;;;;;5112806;28;20022;-70
2023/06/02 05:53:20;;;;;;;5.22;3.97;;;;;;;;;;5112530;28;20433;-69
2023/06/02 05:58:15;;;;;;;7.68;3.58;;;;;;;;;;5112512;22;20413;-71
2023/06/02 06:00:43;;;;;;;7.78;4.10;;;;;;;;;;5084882;23;20098;-70
2023/06/02 06:03:09;;;;;;;7.97;3.40;;;;;;;;;;5073109;28;20171;-71
2023/06/02 06:05:37;;;;;;;6.88;3.15;;;;;;;;;;5074493;28;20480;-71
2023/06/02 06:08:03;;;;;;;4.72;3.38;;;;;;;;;;5082951;28;20081;-71
2023/06/02 06:10:31;;;;;;;6.53;3.30;;;;;;;;;;5075137;28;20036;-71
2023/06/02 06:12:58;;;;;;;5.23;2.90;;;;;;;;;;5057842;28;20024;-71
2023/06/02 06:15:24;;;;;;;5.70;3.28;;;;;;;;;;5074579;28;20278;-71
2023/06/02 06:17:50;;;;;;;3.53;3.08;;;;;;;;;;5074861;28;20043;-71
2023/06/02 06:20:18;;;;;;;6.13;2.67;;;;;;;;;;5057289;28;20016;-71
2023/06/02 06:22:43;;;;;;;6.90;3.70;;;;;;;;;;5058114;28;20020;-71
2023/06/02 06:25:09;;;;;;;5.47;3.40;;;;;;;;;;5077019;28;20028;-71
2023/06/02 06:27:35;;;;;;;6.95;3.22;;;;;;;;;;5075548;28;20032;-71
2023/06/02 06:30:02;;;;;;;5.90;3.70;;;;;;;;;;5094081;28;20035;-71
2023/06/02 06:32:28;;;;;;;5.32;3.20;;;;;;;;;;5094163;28;20081;-71
2023/06/02 06:34:53;;;;;;;9.23;3.13;;;;;;;;;;5078289;28;20043;-70
2023/06/02 06:37:21;;;;;;;5.25;2.80;;;;;;;;;;5078527;28;20034;-70
2023/06/02 06:39:47;;;;;;;6.35;2.92;;;;;;;;;;5078597;28;20074;-70
2023/06/02 06:42:12;;;;;;;8.80;3.40;;;;;;;;;;5078443;28;20024;-69
2023/06/02 06:44:52;;;;;;;;;;;;;;;;;;5079383;28;20077;-69
2023/06/02 06:47:18;;;;;;;6.10;3.10;;;;;;;;;;5095253;28;19908;-70
2023/06/02 06:49:44;;;;;;;7.05;2.83;;;;;;;;;;5078319;28;20024;-69
2023/06/02 06:52:10;;;;;;;4.75;3.17;;;;;;;;;;5096684;28;20114;-70
2023/06/02 06:54:35;;;;;;;3.42;2.58;;;;;;;;;;5078967;28;20032;-70
2023/06/02 06:57:04;;;;;;;4.03;2.70;;;;;;;;;;5096298;28;20028;-69
2023/06/02 06:59:29;;;;;;;4.60;3.00;;;;;;;;;;5096538;28;20024;-69
2023/06/02 07:01:55;;;;;;;7.32;3.15;;;;;;;;;;5077989;28;20035;-69
2023/06/02 07:04:20;;;;;;;5.57;2.85;;;;;;;;;;5061325;28;20476;-70
2023/06/02 07:06:45;;;;;;;3.35;2.75;;;;;;;;;;5077976;28;20024;-70
2023/06/02 07:09:11;;;;;;;8.75;3.50;;;;;;;;;;5078589;28;20067;-69
2023/06/02 07:11:36;;;;;;;6.43;3.53;;;;;;;;;;5096037;28;20141;-69
2023/06/02 07:14:02;;;;;;;3.47;3.17;;;;;;;;;;5095866;28;20506;-70
2023/06/02 07:16:27;;;;;;;5.53;2.90;;;;;;;;;;5061057;28;20056;-70
2023/06/02 07:18:52;;;;;;;5.40;2.72;;;;;;;;;;5095845;28;20035;-69
2023/06/02 07:21:18;;;;;;;4.43;2.72;;;;;;;;;;5095845;28;20503;-69
2023/06/02 07:23:43;;;;;;;3.47;2.75;;;;;;;;;;5060958;28;20186;-69
2023/06/02 07:26:08;;;;;;;5.63;2.92;;;;;;;;;;5096053;28;20095;-70
2023/06/02 07:28:34;;;;;;;4.82;2.88;;;;;;;;;;5077546;28;20391;-69
2023/06/02 07:30:59;;;;;;;4.18;3.08;;;;;;;;;;5095675;28;20043;-69
2023/06/02 07:33:25;;;;;;;5.57;3.03;;;;;;;;;;5095195;28;20043;-70
2023/06/02 07:35:50;;;;;;;5.18;3.00;;;;;;;;;;5077639;28;20522;-69
2023/06/02 07:38:16;;;;;;;11.90;3.28;;;;;;;;;;5077995;28;20034;-70
2023/06/02 07:40:41;;;;;;;3.67;2.47;;;;;;;;;;5095425;28;20471;-69
2023/06/02 07:43:07;;;;;;;4.60;2.55;;;;;;;;;;5095438;28;20027;-70
2023/06/02 07:45:32;;;;;;;7.40;2.88;;;;;;;;;;5095940;28;20074;-70
2023/06/02 07:47:57;;;;;;;5.57;2.60;;;;;;;;;;5095380;28;20051;-69
2023/06/02 07:50:23;;;;;;;5.22;2.75;;;;;;;;;;5095580;28;20482;-69
2023/06/02 07:52:49;;;;;;;3.35;2.38;;;;;;;;;;5095251;28;20019;-69
2023/06/02 07:55:14;;;;;;;6.05;3.13;;;;;;;;;;5095133;28;20028;-70
2023/06/02 07:57:40;;;;;;;5.57;2.78;;;;;;;;;;5095079;28;20369;-69
2023/06/02 08:00:11;;;;;;;4.15;2.38;;;;;;;;;;5095685;28;20020;-70
2023/06/02 08:02:37;;;;;;;5.97;2.85;;;;;;;;;;5095066;28;20036;-69
2023/06/02 08:05:02;;;;;;;5.15;2.35;;;;;;;;;;5095255;28;20049;-70
2023/06/02 08:07:28;;;;;;;4.88;2.63;;;;;;;;;;5095252;28;20059;-69
2023/06/02 08:09:53;;;;;;;5.32;2.67;;;;;;;;;;5094838;28;20152;-70
2023/06/02 08:12:20;;;;;;;5.35;2.58;;;;;;;;;;5094890;28;20036;-70
2023/06/02 08:14:45;;;;;;;2.47;2.28;;;;;;;;;;5094718;28;20032;-69
2023/06/02 08:17:10;;;;;;;5.50;2.90;;;;;;;;;;5094739;28;20020;-69
2023/06/02 08:19:36;;;;;;;5.70;2.38;;;;;;;;;;5076521;28;20483;-70
2023/06/02 08:22:02;;;;;;;6.15;2.83;;;;;;;;;;5094707;28;20020;-69
2023/06/02 08:24:28;;;;;;;2.75;2.10;;;;;;;;;;5076491;28;20095;-69
2023/06/02 08:26:54;;;;;;;3.45;2.53;;;;;;;;;;5094866;28;20028;-70
2023/06/02 08:29:20;;;;;;;6.15;3.03;;;;;;;;;;5094836;28;20044;-69
2023/06/02 08:31:47;;;;;;;3.65;2.50;;;;;;;;;;5094492;28;20028;-70
2023/06/02 08:34:12;;;;;;;2.72;2.33;;;;;;;;;;5094669;28;20097;-69
2023/06/02 08:36:37;;;;;;;5.10;2.45;;;;;;;;;;5094420;28;20484;-70
2023/06/02 08:39:06;;;;;;;4.75;2.35;;;;;;;;;;5094348;28;20521;-69
2023/06/02 08:41:35;;;;;;;5.75;2.25;;;;;;;;;;5076800;28;20024;-69
2023/06/02 08:44:00;;;;;;;4.07;2.10;;;;;;;;;;5076482;28;20035;-70
2023/06/02 08:46:25;;;;;;;2.33;1.98;;;;;;;;;;5094209;28;20395;-69
2023/06/02 08:48:55;;;;;;;4.15;2.20;;;;;;;;;;5094734;28;20063;-70
2023/06/02 08:51:22;;;;;;;7.05;2.22;;;;;;;;;;5094160;28;20039;-69
2023/06/02 08:53:48;;;;;;;3.35;2.40;;;;;;;;;;5094087;28;20116;-70
2023/06/02 08:56:14;;;;;;;4.32;2.33;;;;;;;;;;5076022;28;20061;-70
2023/06/02 08:58:41;;;;;;;3.88;2.15;;;;;;;;;;5076481;28;20032;-71
2023/06/02 09:01:06;;;;;;;2.03;1.77;;;;;;;;;;5093949;28;20036;-71
2023/06/02 09:03:31;;;;;;;3.28;1.95;;;;;;;;;;5109776;28;20031;-71
2023/06/02 09:05:58;;;;;;;5.18;2.10;;;;;;;;;;5094481;28;20022;-71
2023/06/02 09:08:23;;;;;;;3.67;2.33;;;;;;;;;;5093868;28;20032;-71
2023/06/02 09:10:48;;;;;;;2.55;2.05;;;;;;;;;;5093905;28;20032;-70
2023/06/02 09:13:30;;;;;;;6.40;2.17;;;;;;;;;;5094375;28;20028;-71
2023/06/02 09:16:00;;;;;;;5.47;2.30;;;;;;;;;;5076040;28;20097;-71
2023/06/02 09:18:26;;;;;;;2.10;1.87;;;;;;;;;;5075728;28;20042;-71
2023/06/02 09:20:52;;;;;;;4.10;2.33;;;;;;;;;;5094046;28;20028;-71
2023/06/02 09:23:17;;;;;;;3.88;1.90;;;;;;;;;;5093747;28;20382;-71
2023/06/02 09:25:45;;;;;;;3.58;2.05;;;;;;;;;;5093707;28;20032;-71
2023/06/02 09:28:11;;;;;;;2.40;1.80;;;;;;;;;;5093931;28;20032;-71
2023/06/02 09:30:36;;;;;;;3.17;2.20;;;;;;;;;;5094199;28;20027;-71
2023/06/02 09:33:05;;;;;;;5.72;2.03;;;;;;;;;;5093641;28;20531;-71
2023/06/02 09:35:41;;;;;;;3.90;2.13;;;;;;;;;;5093870;28;20048;-71
2023/06/02 09:38:09;;;;;;;4.82;2.20;;;;;;;;;;5076147;28;20313;-71
2023/06/02 09:40:37;;;;;;;5.65;2.20;;;;;;;;;;5093820;28;20396;-71
2023/06/02 09:43:03;;;;;;;2.53;1.65;;;;;;;;;;5093813;28;20158;-71
2023/06/02 09:45:29;;;;;;;4.72;2.20;;;;;;;;;;5075866;28;20042;-71
2023/06/02 09:47:55;;;;;;;3.28;2.45;;;;;;;;;;5093503;28;20024;-71
2023/06/02 09:50:30;;;;;;;5.80;2.67;;;;;;;;;;5094022;28;20464;-71
2023/06/02 09:53:05;;;;;;;3.17;2.50;;;;;;;;;;5075323;28;20537;-71
2023/06/02 09:55:31;;;;;;;4.63;2.30;;;;;;;;;;5075268;28;20119;-70
2023/06/02 09:57:57;;;;;;;2.70;2.30;;;;;;;;;;5077693;28;20063;-70
2023/06/02 10:00:22;;;;;;;4.63;2.67;;;;;;;;;;5097434;28;20024;-70
2023/06/02 10:02:47;;;;;;;3.13;2.33;;;;;;;;;;5079071;28;20048;-70
2023/06/02 10:05:13;;;;;;;5.32;2.30;;;;;;;;;;5097315;28;20032;-70
2023/06/02 10:07:56;;;;;;;4.18;2.67;;;;;;;;;;5097582;28;20040;-70
2023/06/02 10:10:42;;;;;;;4.22;2.17;;;;;;;;;;5097549;28;20024;-70
2023/06/02 10:13:26;;;;;;;3.03;2.08;;;;;;;;;;5038762;28;20135;-70
2023/06/02 10:16:10;;;;;;;5.05;2.50;;;;;;;;;;5078931;28;20488;-70
2023/06/02 10:18:53;;;;;;;3.90;2.25;;;;;;;;;;5097314;28;20483;-70
2023/06/02 10:21:24;;;;;;;4.43;2.10;;;;;;;;;;5078860;28;20024;-70
2023/06/02 10:23:50;;;;;;;2.13;1.92;;;;;;;;;;5097129;28;20048;-70
2023/06/02 10:39:41;;;;;;;2.53;1.58;;;;;;;;;;5073403;27;1265946;-63
2023/06/02 10:42:15;;;;;;;3.85;2.47;;;;;;;;;;5070626;28;20060;-63
2023/06/02 10:44:41;;;;;;;4.38;2.50;;;;;;;;;;5070537;28;20039;-62
2023/06/02 10:47:18;;;;;;;3.33;2.03;;;;;;;;;;5070380;28;20029;-62
2023/06/02 10:49:50;;;;;;;3.53;2.28;;;;;;;;;;5070437;28;20063;-62
2023/06/02 10:52:15;;;;;;;4.63;2.50;;;;;;;;;;5070438;28;20499;-62
2023/06/02 10:54:41;;;;;;;3.88;2.13;;;;;;;;;;5070396;28;20029;-62
2023/06/02 10:57:07;;;;;;;3.53;2.47;;;;;;;;;;5070354;28;20040;-63
2023/06/02 10:59:36;;;;;;;4.50;2.63;;;;;;;;;;5070217;28;20024;-63
2023/06/02 11:02:02;;;;;;;4.07;2.22;;;;;;;;;;5070203;28;20104;-62
2023/06/02 11:04:28;;;;;;;4.97;2.67;;;;;;;;;;5068893;28;20040;-63
2023/06/02 11:07:15;;;;;;;4.88;2.58;;;;;;;;;;5070003;28;20075;-62
2023/06/02 11:09:45;;;;;;;6.28;2.40;;;;;;;;;;5070014;28;20017;-62
2023/06/02 11:12:10;;;;;;;5.63;2.50;;;;;;;;;;5070032;28;20055;-62
2023/06/02 11:14:54;;;;;;;6.28;2.17;;;;;;;;;;5069987;28;20119;-62
2023/06/02 11:17:32;;;;;;;3.67;1.80;;;;;;;;;;5069872;28;20032;-62
2023/06/02 11:19:58;;;;;;;4.20;2.03;;;;;;;;;;5069736;28;20493;-62
2023/06/02 11:22:27;;;;;;;4.68;2.45;;;;;;;;;;5068502;28;20071;-62
2023/06/02 11:24:52;;;;;;;2.75;1.70;;;;;;;;;;5069738;28;20036;-63
2023/06/02 11:27:18;;;;;;;3.80;2.15;;;;;;;;;;5069621;28;20040;-62
2023/06/02 11:29:44;;;;;;;2.47;2.22;;;;;;;;;;5069593;28;20058;-63
2023/06/02 11:32:18;;;;;;;4.57;1.90;;;;;;;;;;5069654;28;20388;-63
2023/06/02 11:34:44;;;;;;;4.60;1.98;;;;;;;;;;5068289;28;20025;-63
2023/06/02 11:37:14;;;;;;;4.85;1.85;;;;;;;;;;5069601;28;20036;-63
2023/06/02 11:40:12;;;;;;;4.00;1.97;;;;;;;;;;5065958;28;20487;-58
2023/06/02 11:42:42;;;;;;;3.33;2.03;;;;;;;;;;5057518;28;20040;-63
2023/06/02 11:45:18;;;;;;;2.17;1.95;;;;;;;;;;5076149;28;20029;-63
2023/06/02 11:47:43;;;;;;;2.40;2.20;;;;;;;;;;5076025;28;20036;-63
2023/06/02 11:50:08;;;;;;;4.03;2.50;;;;;;;;;;5076076;28;20032;-63
2023/06/02 11:52:35;;;;;;;3.65;2.20;;;;;;;;;;5075944;28;20024;-63
2023/06/02 11:55:03;;;;;;;6.10;1.90;;;;;;;;;;5075991;28;20035;-57
2023/06/02 11:57:29;;;;;;;3.67;1.92;;;;;;;;;;4900285;23;20453;-57
2023/06/02 12:00:12;;;;;;;2.58;2.25;;;;;;;;;;5089236;23;20068;-63
2023/06/02 12:02:40;;;;;;;4.68;2.13;;;;;;;;;;5076245;28;20034;-63
2023/06/02 12:05:12;;;;;;;3.63;1.95;;;;;;;;;;5076519;28;20414;-62
2023/06/02 12:07:37;;;;;;;3.88;2.30;;;;;;;;;;5075804;28;20076;-63
2023/06/02 12:10:05;;;;;;;3.10;1.85;;;;;;;;;;5076160;28;20067;-63
2023/06/02 12:12:31;;;;;;;3.67;1.80;;;;;;;;;;5076055;28;20024;-63
2023/06/02 12:14:56;;;;;;;4.22;1.98;;;;;;;;;;5075738;28;20024;-63
2023/06/02 12:17:22;;;;;;;5.53;2.05;;;;;;;;;;5075986;28;20524;-63
2023/06/02 12:19:57;;;;;;;3.10;2.08;;;;;;;;;;5075646;28;20024;-63
2023/06/02 12:22:23;;;;;;;2.55;2.05;;;;;;;;;;5075605;28;20028;-63
2023/06/02 12:24:49;;;;;;;2.97;2.22;;;;;;;;;;5075861;28;20024;-63
2023/06/02 12:27:21;;;;;;;2.13;1.92;;;;;;;;;;5075488;28;20520;-57
2023/06/02 12:29:46;;;;;;;3.58;2.20;;;;;;;;;;5075479;28;20051;-62
2023/06/02 12:32:12;;;;;;;4.07;2.42;;;;;;;;;;5075988;28;20020;-63
2023/06/02 12:34:40;;;;;;;2.83;2.40;;;;;;;;;;5075915;28;20032;-63
2023/06/02 12:37:05;;;;;;;4.30;2.33;;;;;;;;;;5074255;28;20051;-63
2023/06/02 12:39:30;;;;;;;3.17;2.00;;;;;;;;;;5075541;28;20033;-63
2023/06/02 12:41:56;;;;;;;1.90;1.75;;;;;;;;;;5075243;28;20120;-63
2023/06/02 12:44:21;;;;;;;1.98;1.77;;;;;;;;;;5075456;28;20112;-63
2023/06/02 12:46:48;;;;;;;2.55;2.03;;;;;;;;;;5075309;28;20032;-63
2023/06/02 12:49:14;;;;;;;3.92;2.05;;;;;;;;;;5073871;28;20108;-63
2023/06/02 12:51:39;;;;;;;3.50;2.30;;;;;;;;;;5072770;28;20056;-63
2023/06/02 12:54:05;;;;;;;3.20;2.10;;;;;;;;;;5074935;28;20036;-63
2023/06/02 12:56:30;;;;;;;7.50;2.50;;;;;;;;;;5075204;28;20081;-63
2023/06/02 12:58:56;;;;;;;4.15;2.65;;;;;;;;;;5074666;28;20048;-63
2023/06/02 13:01:21;;;;;;;2.20;2.00;;;;;;;;;;5075116;28;20032;-63
2023/06/02 13:03:50;;;;;;;4.55;2.35;;;;;;;;;;5075344;28;20024;-63
2023/06/02 13:06:16;;;;;;;2.40;1.95;;;;;;;;;;5073504;28;20024;-63
2023/06/02 13:08:42;;;;;;;2.72;1.80;;;;;;;;;;5074868;28;20056;-63
2023/06/02 13:11:07;;;;;;;4.82;2.28;;;;;;;;;;5074918;28;20521;-63
2023/06/02 13:13:32;;;;;;;3.72;1.70;;;;;;;;;;5074846;28;20399;-63
2023/06/02 13:15:58;;;;;;;3.38;2.20;;;;;;;;;;5074508;28;20036;-63
2023/06/02 13:18:23;;;;;;;5.45;2.38;;;;;;;;;;5074782;28;20479;-63
2023/06/02 13:20:50;;;;;;;2.05;1.90;;;;;;;;;;5074461;28;20476;-63
2023/06/02 13:23:15;;;;;;;7.00;2.15;;;;;;;;;;5074385;28;20120;-63
2023/06/02 13:25:42;;;;;;;3.38;1.95;;;;;;;;;;5074891;28;20107;-63
2023/06/02 13:28:07;;;;;;;4.13;1.65;;;;;;;;;;5074484;28;20029;-63
2023/06/02 13:30:32;;;;;;;3.13;1.60;;;;;;;;;;5073102;28;20428;-63
2023/06/02 13:32:58;;;;;;;4.13;1.77;;;;;;;;;;5074484;28;20031;-57
2023/06/02 13:35:23;;;;;;;1.58;1.48;;;;;;;;;;5072902;28;20067;-63
2023/06/02 13:37:48;;;;;;;3.42;1.83;;;;;;;;;;5074403;28;20103;-63
2023/06/02 13:40:13;;;;;;;4.50;2.20;;;;;;;;;;5074089;28;20495;-63
2023/06/02 13:42:42;;;;;;;3.97;2.42;;;;;;;;;;5074059;28;20472;-63
2023/06/02 13:45:07;;;;;;;2.22;1.95;;;;;;;;;;5084501;23;20049;-62
2023/06/02 13:47:33;;;;;;;3.72;2.78;;;;;;;;;;5074199;28;20163;-62
2023/06/02 13:49:58;;;;;;;2.78;2.35;;;;;;;;;;5074239;28;20052;-63
2023/06/02 13:52:23;;;;;;;4.60;2.53;;;;;;;;;;5073888;28;20460;-63
2023/06/02 13:54:49;;;;;;;3.25;2.28;;;;;;;;;;5074168;28;20025;-63
2023/06/02 13:57:14;;;;;;;2.60;2.40;;;;;;;;;;5073837;28;20478;-63
2023/06/02 13:59:41;;;;;;;3.75;2.78;;;;;;;;;;5073808;28;20123;-63
2023/06/02 14:02:07;;;;;;;3.28;2.33;;;;;;;;;;5072283;28;20149;-63
2023/06/02 14:04:32;;;;;;;2.47;2.28;;;;;;;;;;5074030;28;20029;-63
2023/06/02 14:06:57;;;;;;;5.45;2.58;;;;;;;;;;5073612;28;20115;-57
2023/06/02 14:09:22;;;;;;;6.93;2.80;;;;;;;;;;5073969;28;20032;-57
2023/06/02 14:11:48;;;;;;;3.40;2.28;;;;;;;;;;5073722;28;20056;-57
2023/06/02 14:14:13;;;;;;;3.20;2.90;;;;;;;;;;5072471;28;20028;-57
2023/06/02 14:16:39;;;;;;;5.10;3.00;;;;;;;;;;5073890;28;20024;-57
2023/06/02 14:19:04;;;;;;;3.25;2.85;;;;;;;;;;5072347;28;20448;-57
2023/06/02 14:21:30;;;;;;;4.20;3.63;;;;;;;;;;5073608;28;20028;-57
2023/06/02 14:23:56;;;;;;;3.25;2.88;;;;;;;;;;5072693;28;20541;-57
2023/06/02 14:26:21;;;;;;;5.53;3.15;;;;;;;;;;5073549;28;20029;-57
2023/06/02 14:28:48;;;;;;;5.07;3.08;;;;;;;;;;5073461;28;20028;-57
2023/06/02 14:31:13;;;;;;;2.95;2.50;;;;;;;;;;5074030;28;20009;-57
2023/06/02 14:33:39;;;;;;;5.43;3.65;;;;;;;;;;5073464;28;20426;-57
2023/06/02 14:36:06;;;;;;;3.10;2.75;;;;;;;;;;5072175;28;20021;-57
2023/06/02 14:38:31;;;;;;;5.38;3.33;;;;;;;;;;5073695;28;20029;-57
2023/06/02 14:40:56;;;;;;;6.07;2.90;;;;;;;;;;5073684;28;20082;-57
2023/06/02 14:43:22;;;;;;;2.97;2.50;;;;;;;;;;5072236;28;20055;-57
2023/06/02 14:45:47;;;;;;;3.03;2.72;;;;;;;;;;5073376;28;20659;-57
2023/06/02 14:48:12;;;;;;;4.50;2.78;;;;;;;;;;5073537;28;20071;-57
2023/06/02 14:50:38;;;;;;;2.35;2.13;;;;;;;;;;5073261;28;20100;-57
2023/06/02 14:53:03;;;;;;;4.45;2.85;;;;;;;;;;5072988;28;20028;-57
2023/06/02 14:55:29;;;;;;;3.13;2.55;;;;;;;;;;5072593;28;20074;-57
2023/06/02 14:57:58;;;;;;;2.42;2.17;;;;;;;;;;5072136;28;20074;-57